Assonet, Massachusetts
Current Conditions -  °F | °C
As of 3:39 PM on Wednesday 26 Nov 2014 (Local Time) from KTAN Reporting Station
Moderate Rain Moderate Rain  
Wind Chill: 31°   Ceiling: 600
Heat Index: 37°   Visibility: 4mi
Dew Point: 35°   Wind: 8mph
Humidity: 93%   Direction: 20°NNE
Pressure: 29.89"   Gusts: 22mph
Location:  41.8°N, 71.07°W
Report Text: KTAN 262039Z AUTO 02007G19KT 350V060 4SM RA BR BKN006 OVC032 03/02 A2989 RMK AO2 PRESFR P0021 T00280017
Loading
Personal Weather Stations






























Interactive Weather Map New forecast layout! Learn more

10-Day Weather Forecast

Advertisements
Track Severe Weather on mobile